createdAt,value
2019-05-11T00:03:16.124Z,3.82
2019-05-11T00:08:25.026Z,3.97
2019-05-11T00:13:34.008Z,4.10
2019-05-11T00:18:42.882Z,4.61
2019-05-11T00:23:51.771Z,4.52
2019-05-11T00:29:00.661Z,4.65
2019-05-11T00:34:09.603Z,4.56
2019-05-11T00:39:18.436Z,4.36
2019-05-11T00:44:27.296Z,4.05
2019-05-11T00:49:36.148Z,3.89
2019-05-11T00:54:45.168Z,3.75
2019-05-11T00:59:54.060Z,3.63
2019-05-11T01:05:02.932Z,3.40
2019-05-11T01:10:23.683Z,3.94
2019-05-11T01:15:20.326Z,3.93
2019-05-11T01:20:29.175Z,3.80
2019-05-11T01:25:38.083Z,3.59
2019-05-11T01:30:46.964Z,3.68
2019-05-11T01:35:55.851Z,3.62
2019-05-11T01:41:04.699Z,3.86
2019-05-11T01:46:13.542Z,3.83
2019-05-11T01:51:22.413Z,3.33
2019-05-11T01:56:31.371Z,3.25
2019-05-11T02:01:40.237Z,3.20
2019-05-11T02:06:49.077Z,3.28
2019-05-11T02:11:57.968Z,3.13
2019-05-11T02:17:06.813Z,3.28
2019-05-11T02:22:15.660Z,3.13
2019-05-11T02:27:24.508Z,2.94
2019-05-11T02:32:33.441Z,3.05
2019-05-11T02:37:42.373Z,3.17
2019-05-11T02:42:51.425Z,3.04
2019-05-11T02:48:00.376Z,2.84
2019-05-11T02:53:09.353Z,2.80
2019-05-11T02:58:18.355Z,3.20
2019-05-11T03:03:27.313Z,3.16
2019-05-11T03:08:36.195Z,3.04
2019-05-11T03:13:45.128Z,2.75
2019-05-11T03:18:54.070Z,3.23
2019-05-11T03:24:03.103Z,3.38
2019-05-11T03:29:11.949Z,3.93
2019-05-11T03:34:20.834Z,3.83
2019-05-11T03:39:29.770Z,3.85
2019-05-11T03:44:38.735Z,3.88
2019-05-11T03:49:47.592Z,3.32
2019-05-11T03:54:56.540Z,3.62
2019-05-11T04:00:05.466Z,3.39
2019-05-11T04:05:14.347Z,3.57
2019-05-11T04:10:25.464Z,3.80
2019-05-11T04:15:31.614Z,3.54
2019-05-11T04:20:40.467Z,2.98
2019-05-11T04:25:49.460Z,2.97
2019-05-11T04:30:58.413Z,2.67
2019-05-11T04:36:07.280Z,2.90
2019-05-11T04:41:16.643Z,3.22
2019-05-11T04:46:24.776Z,3.30
2019-05-11T04:51:33.726Z,2.89
2019-05-11T04:56:42.704Z,3.82
2019-05-11T05:01:51.553Z,3.64
2019-05-11T05:07:05.473Z,3.77
2019-05-11T05:17:17.241Z,3.63
2019-05-11T05:22:28.027Z,3.29
2019-05-11T05:27:39.158Z,3.53
2019-05-11T05:32:38.012Z,2.69
2019-05-11T05:37:46.987Z,2.98
2019-05-11T05:42:55.829Z,2.70
2019-05-11T05:48:04.695Z,2.63
2019-05-11T05:53:13.675Z,2.94
2019-05-11T05:58:22.553Z,2.55
2019-05-11T06:03:31.544Z,2.37
2019-05-11T06:08:43.120Z,2.35
2019-05-11T06:13:48.840Z,2.17
2019-05-11T06:18:57.841Z,2.16
2019-05-11T06:24:08.162Z,2.63
2019-05-11T06:29:15.156Z,2.27
2019-05-11T06:34:24.015Z,2.50
2019-05-11T06:39:32.876Z,2.57
2019-05-11T06:44:41.736Z,2.38
2019-05-11T06:49:50.636Z,2.29
2019-05-11T06:54:59.508Z,2.23
2019-05-11T07:00:08.341Z,2.33
2019-05-11T07:05:17.175Z,2.43
2019-05-11T07:10:26.026Z,2.68
2019-05-11T07:15:34.876Z,2.50
2019-05-11T07:20:50.645Z,2.45
2019-05-11T07:25:52.253Z,2.14
2019-05-11T07:31:01.198Z,2.39
2019-05-11T07:36:10.021Z,3.10
2019-05-11T07:41:19.052Z,2.85
2019-05-11T07:46:28.839Z,3.84
2019-05-11T07:51:38.733Z,2.87
2019-05-11T07:56:44.811Z,2.53
2019-05-11T08:01:53.740Z,2.41
2019-05-11T08:07:02.595Z,1.97
2019-05-11T08:12:11.518Z,2.05
2019-05-11T08:17:20.344Z,1.98
2019-05-11T08:22:29.239Z,2.19
2019-05-11T08:27:38.130Z,2.06
2019-05-11T08:32:49.228Z,2.30
2019-05-11T08:37:55.377Z,2.03
2019-05-11T08:43:04.221Z,2.24
2019-05-11T08:48:13.083Z,1.95
2019-05-11T08:53:21.932Z,2.12
2019-05-11T08:58:30.849Z,1.93
2019-05-11T09:03:39.681Z,2.12
2019-05-11T09:08:49.352Z,2.34
2019-05-11T09:13:57.823Z,2.31
2019-05-11T09:19:05.547Z,2.66
2019-05-11T09:24:14.384Z,2.73
2019-05-11T09:29:23.312Z,2.96
2019-05-11T09:34:32.163Z,3.58
2019-05-11T09:39:41.125Z,3.34
2019-05-11T09:44:50.021Z,2.86
2019-05-11T09:49:58.857Z,2.80
2019-05-11T09:55:08.761Z,2.80
2019-05-11T10:00:17.938Z,2.65
2019-05-11T10:05:24.515Z,2.63
2019-05-11T10:10:33.368Z,2.97
2019-05-11T10:15:42.259Z,3.11
2019-05-11T10:20:51.165Z,2.98
2019-05-11T10:26:00.063Z,2.58
2019-05-11T10:31:08.929Z,2.41
2019-05-11T10:36:18.924Z,2.57
2019-05-11T10:41:28.273Z,2.35
2019-05-11T10:46:34.614Z,2.52
2019-05-11T10:51:43.452Z,2.34
2019-05-11T10:56:52.533Z,2.50
2019-05-11T11:02:01.381Z,3.37
2019-05-11T11:07:10.297Z,3.36
2019-05-11T11:12:19.147Z,3.34
2019-05-11T11:17:28.747Z,3.00
2019-05-11T11:22:41.315Z,3.24
2019-05-11T11:27:44.800Z,2.83
2019-05-11T11:32:53.744Z,2.65
2019-05-11T11:38:02.639Z,2.86
2019-05-11T11:43:11.527Z,2.73
2019-05-11T11:48:20.390Z,2.60
2019-05-11T11:53:29.253Z,2.69
2019-05-11T11:58:38.223Z,2.07
2019-05-11T12:03:48.849Z,2.31
2019-05-11T12:08:55.330Z,1.79
2019-05-11T12:14:04.215Z,2.12
2019-05-11T12:19:13.053Z,2.12
2019-05-11T12:24:21.889Z,2.57
2019-05-11T12:29:30.735Z,2.11
2019-05-11T12:34:39.651Z,1.92
2019-05-11T12:39:48.531Z,1.93
2019-05-11T12:44:57.870Z,2.02
2019-05-11T12:50:07.797Z,2.42
2019-05-11T12:55:14.144Z,2.18
2019-05-11T13:00:22.973Z,2.08
2019-05-11T13:05:31.852Z,2.07
2019-05-11T13:10:40.738Z,2.57
2019-05-11T13:15:49.631Z,3.16
2019-05-11T13:20:58.875Z,2.75
2019-05-11T13:26:08.733Z,2.65
2019-05-11T13:31:15.335Z,2.71
2019-05-11T13:36:24.229Z,1.89
2019-05-11T13:41:33.056Z,1.94
2019-05-11T13:46:41.970Z,1.86
2019-05-11T13:51:50.804Z,2.07
2019-05-11T13:56:59.671Z,1.63
2019-05-11T14:02:10.932Z,1.80
2019-05-11T14:07:18.616Z,1.63
2019-05-11T14:12:25.323Z,1.70
2019-05-11T14:17:34.195Z,1.25
2019-05-11T14:22:43.119Z,1.60
2019-05-11T14:27:51.975Z,1.45
2019-05-11T14:33:00.849Z,1.43
2019-05-11T14:38:09.719Z,1.55
2019-05-11T14:43:18.951Z,1.41
2019-05-11T14:48:29.867Z,1.55
2019-05-11T14:53:37.622Z,1.81
2019-05-11T14:58:43.796Z,1.47
2019-05-11T15:03:52.749Z,1.85
2019-05-11T15:09:01.593Z,1.75
2019-05-11T15:14:10.511Z,1.61
2019-05-11T15:19:19.344Z,1.76
2019-05-11T15:24:28.868Z,1.61
2019-05-11T15:29:37.749Z,2.04
2019-05-11T15:34:44.939Z,2.58
2019-05-11T15:39:53.777Z,2.41
2019-05-11T15:45:02.703Z,2.27
2019-05-11T15:50:11.573Z,2.88
2019-05-11T15:55:20.458Z,2.89
2019-05-11T16:00:29.312Z,3.13
2019-05-11T16:05:38.208Z,2.66
2019-05-11T16:10:48.915Z,2.85
2019-05-11T16:15:57.592Z,2.36
2019-05-11T16:21:03.880Z,2.26
2019-05-11T16:26:12.716Z,1.84
2019-05-11T16:31:21.607Z,1.49
2019-05-11T16:36:30.448Z,1.62
2019-05-11T16:41:39.359Z,1.65
2019-05-11T16:46:50.803Z,1.56
2019-05-11T16:51:56.620Z,1.62
2019-05-11T16:57:05.458Z,1.71
2019-05-11T17:02:14.320Z,1.96
2019-05-11T17:07:23.200Z,1.66
2019-05-11T17:12:32.092Z,2.13
2019-05-11T17:17:40.913Z,1.48
2019-05-11T17:22:53.124Z,1.74
2019-05-11T17:27:58.756Z,1.70
2019-05-11T17:33:08.765Z,1.59
2019-05-11T17:38:15.000Z,1.75
2019-05-11T17:43:23.910Z,2.00
2019-05-11T17:48:32.731Z,1.57
2019-05-11T17:53:41.639Z,2.48
2019-05-11T17:58:50.528Z,2.00
2019-05-11T18:03:59.375Z,2.05
2019-05-11T18:09:08.590Z,1.80
2019-05-11T18:14:16.647Z,1.80
2019-05-11T18:19:27.616Z,1.49
2019-05-11T18:24:33.916Z,1.44
2019-05-11T18:29:42.803Z,1.82
2019-05-11T18:34:51.691Z,1.55
2019-05-11T18:40:00.546Z,1.27
2019-05-11T18:45:09.436Z,1.44
2019-05-11T18:50:29.748Z,1.75
2019-05-11T18:55:28.132Z,1.52
2019-05-11T19:00:35.327Z,1.35
2019-05-11T19:05:44.247Z,1.44
2019-05-11T19:10:53.132Z,1.36
2019-05-11T19:16:02.085Z,1.40
2019-05-11T19:21:10.959Z,1.17
2019-05-11T19:26:19.837Z,1.25
2019-05-11T19:31:28.675Z,1.34
2019-05-11T19:36:38.184Z,1.55
2019-05-11T19:41:45.935Z,1.62
2019-05-11T19:46:54.765Z,1.74
2019-05-11T19:52:03.724Z,1.71
2019-05-11T19:57:12.572Z,1.47
2019-05-11T20:02:21.544Z,1.48
2019-05-11T20:07:32.116Z,1.45
2019-05-11T20:12:41.610Z,1.49
2019-05-11T20:17:48.749Z,1.51
2019-05-11T20:22:55.701Z,1.45
2019-05-11T20:28:04.529Z,1.36
2019-05-11T20:33:13.406Z,1.53
2019-05-11T20:38:22.273Z,1.55
2019-05-11T20:43:31.144Z,1.37
2019-05-11T20:48:40.004Z,1.35
2019-05-11T20:53:49.024Z,1.69
2019-05-11T20:58:59.343Z,1.80
2019-05-11T21:04:08.344Z,1.98
2019-05-11T21:09:14.435Z,1.94
2019-05-11T21:14:23.305Z,2.22
2019-05-11T21:19:32.141Z,2.20
2019-05-11T21:24:40.984Z,1.84
2019-05-11T21:29:49.845Z,1.76
2019-05-11T21:35:01.026Z,1.65
2019-05-11T21:40:08.513Z,1.60
2019-05-11T21:45:17.837Z,1.40
2019-05-11T21:50:24.134Z,1.37
2019-05-11T21:55:33.001Z,1.51
2019-05-11T22:00:41.923Z,1.66
2019-05-11T22:05:50.793Z,1.23
2019-05-11T22:10:59.976Z,1.61
2019-05-11T22:16:08.710Z,1.55
2019-05-11T22:21:18.612Z,1.50
2019-05-11T22:26:24.792Z,1.56
2019-05-11T22:31:33.657Z,1.24
2019-05-11T22:36:42.553Z,1.15
2019-05-11T22:41:51.411Z,1.47
2019-05-11T22:47:00.357Z,1.41
2019-05-11T22:52:09.291Z,1.28
2019-05-11T22:57:18.155Z,1.17
2019-05-11T23:02:28.699Z,1.38
2019-05-11T23:07:37.714Z,1.40
2019-05-11T23:12:43.883Z,1.43
2019-05-11T23:17:52.788Z,1.34
2019-05-11T23:28:07.830Z,1.43
2019-05-11T23:33:18.381Z,1.14
2019-05-11T23:38:25.076Z,1.37
2019-05-11T23:43:47.714Z,1.28
2019-05-11T23:48:34.476Z,1.29
2019-05-11T23:53:47.997Z,1.51
2019-05-11T23:58:48.266Z,1.49
